Time;durP1;ratioP1;P1;durP2;ratioP2;P2;SDS_P1;SDS_P2;PMS_P1;PMS_P2;Temp;Humidity;BMP_temperature;BMP_pressure;BME280_temperature;BME280_humidity;BME280_pressure;Samples;Min_cycle;Max_cycle;Signal;HPM_P1;HPM_P2
2022/04/26 03:37:35;;;;;;;0.17;0.17;;;;;;;20.35;41.09;101007.53;5115644;28;20071;-30
2022/04/26 03:40:01;;;;;;;0.10;0.10;;;;;;;20.35;41.42;101001.19;5131612;28;20039;-29
2022/04/26 03:42:26;;;;;;;0.10;0.10;;;;;;;20.33;41.12;101001.44;5131724;28;20561;-30
2022/04/26 03:44:52;;;;;;;0.13;0.13;;;;;;;20.34;41.08;101003.13;5131005;28;20400;-30
2022/04/26 03:47:18;;;;;;;0.10;0.10;;;;;;;20.33;41.36;101006.97;5131634;28;20438;-30
2022/04/26 03:49:43;;;;;;;0.20;0.20;;;;;;;20.35;41.27;101015.00;5129779;28;20051;-31
2022/04/26 03:52:09;;;;;;;0.13;0.13;;;;;;;20.34;41.05;101010.59;5128726;28;20354;-32
2022/04/26 03:54:35;;;;;;;0.10;0.10;;;;;;;20.34;41.36;101010.59;5132403;28;20043;-30
2022/04/26 03:57:01;;;;;;;0.10;0.10;;;;;;;20.33;41.34;101008.91;5112692;28;20039;-31
2022/04/26 03:59:26;;;;;;;0.20;0.20;;;;;;;20.33;41.31;101017.22;5130095;28;20059;-30
2022/04/26 04:01:52;;;;;;;0.20;0.20;;;;;;;20.33;41.49;101026.34;5131882;28;20390;-34
2022/04/26 04:04:18;;;;;;;0.10;0.10;;;;;;;20.33;41.31;101019.97;5131463;28;20039;-29
2022/04/26 04:06:44;;;;;;;0.20;0.20;;;;;;;20.33;41.30;101023.56;5129862;28;20066;-30
2022/04/26 04:09:10;;;;;;;0.17;0.17;;;;;;;20.33;41.30;101022.75;5130812;28;20715;-30
2022/04/26 04:11:35;;;;;;;0.20;0.20;;;;;;;20.33;41.30;101019.97;5128799;28;20047;-30
2022/04/26 04:14:01;;;;;;;0.10;0.10;;;;;;;20.34;41.28;101029.97;5131531;28;20039;-28
2022/04/26 04:16:27;;;;;;;0.10;0.10;;;;;;;20.32;41.17;101027.47;5131763;28;20047;-30
2022/04/26 04:19:25;;;;;;;0.10;0.10;;;;;;;20.32;41.45;101030.22;5128313;28;20563;-31
2022/04/26 04:21:38;;;;;;;0.20;0.20;;;;;;;20.32;41.22;101023.88;5129542;28;20115;-30
2022/04/26 04:24:04;;;;;;;0.20;0.20;;;;;;;20.32;41.21;101034.94;5130931;27;20197;-30
2022/04/26 04:26:29;;;;;;;0.20;0.20;;;;;;;20.32;41.22;101033.00;5112581;28;20039;-30
2022/04/26 04:28:55;;;;;;;0.15;0.15;;;;;;;20.32;41.58;101035.75;5131015;28;20062;-30
2022/04/26 04:31:21;;;;;;;0.13;0.13;;;;;;;20.32;41.43;101033.00;5130400;28;20043;-30
2022/04/26 04:33:47;;;;;;;0.10;0.10;;;;;;;20.32;41.10;101030.22;5130567;28;20043;-30
2022/04/26 04:36:12;;;;;;;0.10;0.10;;;;;;;20.30;41.45;101030.53;5128885;28;20088;-28
2022/04/26 04:38:38;;;;;;;0.10;0.10;;;;;;;20.32;41.41;101044.06;5130559;28;20043;-29
2022/04/26 04:41:04;;;;;;;0.10;0.10;;;;;;;20.32;41.18;101046.00;5129789;28;20490;-30
2022/04/26 04:43:30;;;;;;;0.10;0.10;;;;;;;20.31;41.55;101045.16;5130513;28;20070;-30
2022/04/26 04:45:56;;;;;;;0.20;0.20;;;;;;;20.30;41.22;101055.41;5130566;28;20046;-30
2022/04/26 04:48:22;;;;;;;0.10;0.10;;;;;;;20.31;41.26;101056.22;5129462;28;20450;-30
2022/04/26 04:50:47;;;;;;;0.10;0.10;;;;;;;20.30;41.19;101060.13;5128847;28;20076;-29
2022/04/26 04:53:13;;;;;;;0.20;0.20;;;;;;;20.30;41.20;101071.19;5130603;28;20042;-31
2022/04/26 04:55:40;;;;;;;0.10;0.10;;;;;;;20.30;41.40;101071.19;5130172;28;20064;-31
2022/04/26 04:58:06;;;;;;;0.20;0.20;;;;;;;20.30;41.22;101087.78;5130579;28;20130;-29
2022/04/26 05:00:31;;;;;;;0.20;0.20;;;;;;;20.30;41.43;101083.06;5130179;28;20122;-29
2022/04/26 05:02:58;;;;;;;0.20;0.20;;;;;;;20.30;41.45;101085.00;5130501;28;20043;-31
2022/04/26 05:05:23;;;;;;;0.10;0.10;;;;;;;20.29;41.21;101083.34;5128826;28;20089;-31
2022/04/26 05:07:50;;;;;;;0.10;0.10;;;;;;;20.28;41.24;101093.56;5129953;28;20474;-30
2022/04/26 05:10:15;;;;;;;0.17;0.17;;;;;;;20.30;41.47;101094.13;5127673;28;20184;-31
2022/04/26 05:12:41;;;;;;;0.10;0.10;;;;;;;20.29;41.18;101086.94;5129650;27;20108;-31
2022/04/26 05:15:07;;;;;;;0.10;0.10;;;;;;;20.30;41.46;101090.53;5130130;28;20473;-30
2022/04/26 05:17:33;;;;;;;0.20;0.20;;;;;;;20.29;41.24;101094.41;5130349;28;20047;-29
2022/04/26 05:19:59;;;;;;;0.20;0.20;;;;;;;20.29;41.31;101100.78;5127680;28;20041;-30
2022/04/26 05:22:24;;;;;;;0.10;0.10;;;;;;;20.28;41.34;101101.88;5129303;28;20532;-30
2022/04/26 05:24:53;;;;;;;0.20;0.20;;;;;;;20.29;41.21;101094.41;5128935;28;20083;-31
2022/04/26 05:27:20;;;;;;;0.10;0.10;;;;;;;20.29;41.30;101086.94;5129804;28;20085;-30
2022/04/26 05:29:46;;;;;;;0.10;0.10;;;;;;;20.28;41.53;101082.50;5109996;28;20070;-30
2022/04/26 05:32:12;;;;;;;0.20;0.20;;;;;;;20.27;41.45;101082.81;5130850;28;20280;-30
2022/04/26 05:34:37;;;;;;;0.20;0.20;;;;;;;20.29;41.05;101089.72;5128001;27;20406;-29
2022/04/26 05:37:03;;;;;;;0.10;0.10;;;;;;;20.29;41.14;101102.69;5128791;28;20087;-30
2022/04/26 05:39:29;;;;;;;0.20;0.20;;;;;;;20.29;41.38;101108.22;5123114;28;20055;-30
2022/04/26 05:41:54;;;;;;;0.20;0.20;;;;;;;20.26;41.48;101112.41;5129596;28;20053;-30
2022/04/26 05:44:20;;;;;;;0.20;0.20;;;;;;;20.28;41.41;101114.88;5128438;28;20051;-30
2022/04/26 05:46:46;;;;;;;0.20;0.20;;;;;;;20.27;41.41;101116.81;5129595;28;20046;-29
2022/04/26 05:49:12;;;;;;;0.13;0.13;;;;;;;20.28;41.15;101126.75;5127189;28;20231;-30
2022/04/26 05:51:37;;;;;;;0.20;0.20;;;;;;;20.26;41.17;101120.69;5127548;28;20043;-30
2022/04/26 05:54:03;;;;;;;0.20;0.20;;;;;;;20.28;41.29;101117.63;5128520;28;20047;-30
2022/04/26 05:56:29;;;;;;;0.20;0.20;;;;;;;20.28;41.29;101118.47;5123258;28;20066;-29
2022/04/26 05:58:54;;;;;;;0.20;0.20;;;;;;;20.27;41.21;101124.28;5115134;28;20199;-30
2022/04/26 06:01:20;;;;;;;0.20;0.20;;;;;;;20.27;41.49;101129.81;5121074;28;20443;-30
2022/04/26 06:03:46;;;;;;;0.20;0.20;;;;;;;20.26;41.17;101122.63;5123991;28;20039;-29
2022/04/26 06:06:11;;;;;;;0.20;0.20;;;;;;;20.26;41.46;101129.00;5112129;28;20047;-29
2022/04/26 06:08:37;;;;;;;0.13;0.13;;;;;;;20.27;41.16;101130.66;5122909;28;20043;-31
2022/04/26 06:11:03;;;;;;;0.10;0.10;;;;;;;20.26;41.50;101133.69;5097154;28;20047;-31
2022/04/26 06:13:28;;;;;;;0.13;0.13;;;;;;;20.26;41.21;101130.94;5124082;28;20055;-32
2022/04/26 06:15:54;;;;;;;0.20;0.20;;;;;;;20.25;41.16;101130.13;5124895;28;20532;-32
2022/04/26 06:18:20;;;;;;;0.15;0.15;;;;;;;20.28;41.34;101131.47;5120849;28;20050;-31
2022/04/26 06:20:45;;;;;;;0.20;0.20;;;;;;;20.26;41.58;101134.53;5124252;28;20039;-33
2022/04/26 06:23:11;;;;;;;0.10;0.10;;;;;;;20.26;41.29;101134.53;5124144;28;20127;-30
2022/04/26 06:25:38;;;;;;;0.20;0.20;;;;;;;20.26;41.38;101139.22;5126285;28;21101;-30
2022/04/26 06:28:06;;;;;;;0.20;0.20;;;;;;;20.26;41.41;101134.53;5123094;28;20143;-30
2022/04/26 06:30:31;;;;;;;0.20;0.20;;;;;;;20.26;41.50;101139.22;5120566;27;20773;-30
2022/04/26 06:32:57;;;;;;;0.20;0.20;;;;;;;20.26;41.35;101140.06;5124738;27;20051;-30
2022/04/26 06:35:23;;;;;;;0.10;0.10;;;;;;;20.25;41.39;101141.19;5122172;28;20046;-30
2022/04/26 06:37:49;;;;;;;0.10;0.10;;;;;;;20.26;41.25;101145.59;5123657;28;20314;-29
2022/04/26 06:40:14;;;;;;;0.13;0.13;;;;;;;20.25;41.41;101141.19;5118053;28;20075;-30
2022/04/26 06:42:40;;;;;;;0.20;0.20;;;;;;;20.26;41.40;101150.28;5122654;28;20047;-29
2022/04/26 06:45:06;;;;;;;0.10;0.10;;;;;;;20.25;41.48;101155.00;5118221;27;20043;-30
2022/04/26 06:47:31;;;;;;;0.20;0.20;;;;;;;20.26;41.35;101155.81;5099921;28;20082;-31
2022/04/26 06:49:57;;;;;;;0.13;0.13;;;;;;;20.26;41.26;101153.88;5116005;28;20050;-32
2022/04/26 06:52:23;;;;;;;0.20;0.20;;;;;;;20.26;41.48;101161.34;5119277;28;20039;-29
2022/04/26 06:54:48;;;;;;;0.20;0.20;;;;;;;20.26;41.54;101153.06;5111804;28;20043;-30
2022/04/26 06:57:15;;;;;;;0.20;0.20;;;;;;;20.25;41.24;101157.75;5113058;28;20413;-29
2022/04/26 06:59:41;;;;;;;0.10;0.10;;;;;;;20.25;41.51;101152.22;5098366;28;20436;-32
2022/04/26 07:02:07;;;;;;;0.20;0.20;;;;;;;20.26;41.26;101162.19;5107338;27;20473;-28
2022/04/26 07:04:33;;;;;;;0.20;0.20;;;;;;;20.26;41.32;101161.34;5107035;27;20035;-29
2022/04/26 07:06:59;;;;;;;0.20;0.20;;;;;;;20.26;41.18;101161.34;5089877;28;20066;-30
2022/04/26 07:09:25;;;;;;;0.20;0.20;;;;;;;20.25;41.45;101155.00;5104503;27;20062;-29
2022/04/26 07:11:52;;;;;;;0.10;0.10;;;;;;;20.25;41.31;101162.44;5114523;28;20329;-29
2022/04/26 07:14:18;;;;;;;0.63;0.50;;;;;;;20.25;41.09;101159.69;5105988;27;20071;-29
2022/04/26 07:16:49;;;;;;;0.20;0.20;;;;;;;20.25;41.16;101154.16;5120479;27;21189;-29
2022/04/26 07:19:17;;;;;;;0.10;0.10;;;;;;;19.91;41.02;101154.84;5104991;27;20370;-33
2022/04/26 07:21:46;;;;;;;0.20;0.20;;;;;;;20.07;40.89;101161.13;5094009;28;20134;-29
2022/04/26 07:24:31;;;;;;;0.10;0.10;;;;;;;20.18;40.88;101153.66;5115602;27;20046;-29
2022/04/26 07:26:56;;;;;;;0.10;0.10;;;;;;;20.16;41.09;101169.66;5112598;27;20532;-30
2022/04/26 07:29:22;;;;;;;0.10;0.10;;;;;;;20.23;40.97;101167.44;5101543;28;20257;-30
2022/04/26 07:31:48;;;;;;;0.20;0.20;;;;;;;20.23;41.31;101173.81;5115065;28;20130;-29
2022/04/26 07:34:21;;;;;;;0.20;0.20;;;;;;;20.25;41.16;101181.81;5115316;27;20055;-30
2022/04/26 07:36:50;;;;;;;0.20;0.20;;;;;;;20.26;41.22;101181.53;5112690;27;20085;-29
2022/04/26 07:39:17;;;;;;;0.10;0.10;;;;;;;20.28;41.20;101184.84;5117890;28;20047;-29
2022/04/26 07:41:45;;;;;;;0.30;0.30;;;;;;;20.28;40.95;101182.06;5108010;27;20780;-29
2022/04/26 07:44:11;;;;;;;0.10;0.10;;;;;;;20.30;41.07;101193.69;5108757;27;20536;-29
2022/04/26 07:46:37;;;;;;;0.10;0.10;;;;;;;20.31;41.11;101191.75;5118084;27;20040;-30
2022/04/26 07:49:05;;;;;;;0.10;0.10;;;;;;;20.33;41.28;101206.13;5108579;27;20055;-30
2022/04/26 07:51:31;;;;;;;0.10;0.10;;;;;;;20.34;40.88;101206.97;5109861;27;20603;-27
2022/04/26 07:53:57;;;;;;;0.20;0.20;;;;;;;20.34;41.18;101210.56;5116813;27;20358;-29
2022/04/26 07:56:23;;;;;;;0.10;0.10;;;;;;;20.34;41.03;101212.50;5114681;28;21653;-29
2022/04/26 07:58:48;;;;;;;0.10;0.10;;;;;;;20.36;41.17;101215.81;5119122;27;20108;-30
2022/04/26 08:01:14;;;;;;;0.30;0.30;;;;;;;20.37;40.83;101212.75;5113723;28;20050;-30
2022/04/26 08:03:40;;;;;;;0.15;0.15;;;;;;;20.38;40.95;101216.34;5105863;27;20047;-30
2022/04/26 08:06:05;;;;;;;0.20;0.20;;;;;;;20.38;40.81;101219.97;5109092;28;20142;-30
2022/04/26 08:08:31;;;;;;;0.10;0.10;;;;;;;20.40;41.03;101227.97;5111423;28;20055;-30
2022/04/26 08:10:58;;;;;;;0.17;0.17;;;;;;;20.40;41.07;101231.56;5113106;28;20765;-30
2022/04/26 08:13:23;;;;;;;0.10;0.10;;;;;;;20.41;40.81;101238.72;5111811;27;20139;-31
2022/04/26 08:15:49;;;;;;;0.20;0.20;;;;;;;20.42;41.04;101231.25;5117279;28;20047;-29
2022/04/26 08:18:15;;;;;;;0.10;0.10;;;;;;;20.43;40.92;101244.00;5112154;28;20055;-30
2022/04/26 08:20:41;;;;;;;0.20;0.20;;;;;;;20.44;41.10;101240.13;5109880;27;20159;-30
2022/04/26 08:23:07;;;;;;;0.10;0.10;;;;;;;20.44;40.98;101240.13;5095661;28;20235;-30
2022/04/26 08:28:20;;;;;;;0.10;0.10;;;;;;;20.46;40.79;101248.94;5099324;28;20747;-29
2022/04/26 08:30:47;;;;;;;0.10;0.10;;;;;;;20.47;41.01;101245.09;5116936;28;20517;-29
2022/04/26 08:33:12;;;;;;;0.10;0.10;;;;;;;20.46;40.87;101244.25;5095167;28;20074;-31
2022/04/26 08:35:38;;;;;;;0.10;0.10;;;;;;;20.47;40.76;101251.47;5107097;27;20609;-30
2022/04/26 08:38:24;;;;;;;0.10;0.10;;;;;;;20.47;40.78;101242.34;5088799;28;20055;-34
2022/04/26 08:40:50;;;;;;;0.10;0.10;;;;;;;20.43;40.95;101238.47;5103825;27;20059;-34
2022/04/26 08:43:15;;;;;;;0.15;0.15;;;;;;;20.47;40.75;101245.09;5112797;27;20051;-29
2022/04/26 08:45:42;;;;;;;0.10;0.10;;;;;;;20.52;40.53;101240.41;5116520;28;20103;-29
2022/04/26 08:51:10;;;;;;;0.10;0.10;;;;;;;20.52;40.75;101245.09;5096631;28;20047;-31
2022/04/26 08:53:36;;;;;;;0.20;0.20;;;;;;;20.52;40.91;101248.69;5094983;28;20081;-32
2022/04/26 08:56:06;;;;;;;0.17;0.17;;;;;;;20.52;40.89;101258.94;5111674;28;20058;-31
2022/04/26 08:58:33;;;;;;;0.10;0.10;;;;;;;20.52;40.72;101254.22;5096966;28;20378;-27
2022/04/26 09:03:55;;;;;;;0.13;0.13;;;;;;;20.55;40.76;101261.13;5156500;27;20206;-27
2022/04/26 09:09:12;;;;;;;0.20;0.20;;;;;;;20.57;40.88;101264.44;5156497;27;20123;-30
2022/04/26 09:11:38;;;;;;;;;;;;;;;20.57;40.66;101278.28;5132870;27;20179;-30
2022/04/26 09:14:08;;;;;;;0.10;0.10;;;;;;;20.57;40.74;101281.06;5136951;27;19927;-31
2022/04/26 09:16:34;;;;;;;0.10;0.10;;;;;;;20.58;40.61;101279.94;5153312;27;20118;-30
2022/04/26 09:19:05;;;;;;;0.10;0.10;;;;;;;20.59;40.91;101278.00;5132456;27;20050;-30
2022/04/26 09:21:32;;;;;;;0.20;0.20;;;;;;;20.61;40.79;101284.09;5148075;27;20133;-29
2022/04/26 09:24:00;;;;;;;0.20;0.20;;;;;;;20.61;40.59;101287.69;5132162;27;20192;-31
2022/04/26 09:26:33;;;;;;;0.10;0.10;;;;;;;20.62;40.60;101288.50;5133341;27;20078;-32
2022/04/26 09:28:58;;;;;;;0.20;0.20;;;;;;;20.62;40.92;101294.88;5131678;27;20453;-31
2022/04/26 09:31:28;;;;;;;0.20;0.20;;;;;;;20.63;40.79;101293.75;5154407;27;20380;-30
2022/04/26 09:33:57;;;;;;;0.10;0.10;;;;;;;20.64;40.62;101300.97;5128263;27;20057;-32
2022/04/26 09:36:25;;;;;;;0.20;0.20;;;;;;;20.66;40.89;101303.44;5150636;27;20161;-30
2022/04/26 09:38:55;;;;;;;0.15;0.15;;;;;;;20.64;41.04;101308.41;5132702;27;20086;-29
2022/04/26 09:41:22;;;;;;;0.10;0.10;;;;;;;20.70;40.56;101310.06;5118307;27;20050;-30
2022/04/26 09:44:05;;;;;;;0.20;0.20;;;;;;;20.69;40.84;101306.47;5113145;27;20158;-31
2022/04/26 09:46:47;;;;;;;0.20;0.20;;;;;;;20.69;40.59;101309.25;5115849;27;20591;-30
2022/04/26 09:49:14;;;;;;;0.10;0.10;;;;;;;20.70;40.77;101316.44;5108974;27;20472;-29
2022/04/26 09:51:41;;;;;;;0.10;0.10;;;;;;;20.70;40.63;101315.59;5135142;27;20107;-30
2022/04/26 09:54:07;;;;;;;0.10;0.10;;;;;;;20.71;40.84;101323.63;5114442;27;20386;-32
2022/04/26 09:56:34;;;;;;;0.20;0.20;;;;;;;20.72;40.78;101324.44;5139361;27;20177;-30
2022/04/26 09:59:01;;;;;;;0.20;0.20;;;;;;;20.72;40.84;101328.03;5119281;27;20565;-30
2022/04/26 10:01:30;;;;;;;0.10;0.10;;;;;;;20.73;40.65;101324.19;5131514;27;20138;-29
2022/04/26 10:04:02;;;;;;;0.10;0.10;;;;;;;20.74;40.75;101328.59;5119745;27;20039;-30
2022/04/26 10:06:33;;;;;;;0.20;0.20;;;;;;;20.75;40.47;101326.66;5135155;27;20127;-31
2022/04/26 10:08:59;;;;;;;0.17;0.17;;;;;;;20.75;40.56;101335.78;5131879;27;20145;-31
2022/04/26 10:11:25;;;;;;;0.10;0.10;;;;;;;20.75;40.56;101337.72;5131674;27;20705;-30
2022/04/26 10:13:51;;;;;;;0.30;0.30;;;;;;;20.76;40.72;101329.13;5133644;27;20447;-30
2022/04/26 10:16:21;;;;;;;0.10;0.10;;;;;;;20.77;40.56;101335.53;5135695;27;20051;-31
2022/04/26 10:18:48;;;;;;;0.13;0.13;;;;;;;20.77;40.58;101341.88;5130629;27;20666;-31
2022/04/26 10:26:38;;;;;;;0.10;0.10;;;;;;;20.79;40.57;101341.59;5152825;27;20117;-32
2022/04/26 10:31:46;;;;;;;0.10;0.10;;;;;;;20.81;40.63;101350.44;5156998;27;20225;-31
2022/04/26 10:37:00;;;;;;;0.20;0.20;;;;;;;20.83;40.63;101342.69;5156873;27;20190;-30
2022/04/26 10:39:30;;;;;;;0.10;0.10;;;;;;;20.82;40.45;101343.81;5125484;27;20049;-31
2022/04/26 10:41:56;;;;;;;0.10;0.10;;;;;;;20.84;40.61;101349.03;5120486;27;20163;-31
2022/04/26 10:44:26;;;;;;;0.20;0.20;;;;;;;20.84;40.78;101352.63;5130097;27;20141;-31
2022/04/26 10:49:50;;;;;;;0.20;0.20;;;;;;;20.83;40.68;101356.53;5136401;27;20128;-27
2022/04/26 10:57:38;;;;;;;0.10;0.10;;;;;;;20.83;40.54;101361.25;5149808;27;20619;-24
2022/04/26 11:00:08;;;;;;;0.15;0.15;;;;;;;20.83;40.60;101355.69;5099457;27;20114;-24
2022/04/26 11:02:37;;;;;;;0.10;0.10;;;;;;;20.80;42.42;101349.59;5133980;27;20094;-29
2022/04/26 11:05:08;;;;;;;0.20;0.20;;;;;;;20.83;41.74;101353.75;5112492;27;20755;-24
2022/04/26 11:07:35;;;;;;;0.20;0.20;;;;;;;20.85;41.75;101347.94;5112336;27;20494;-25
2022/04/26 11:10:02;;;;;;;0.10;0.10;;;;;;;20.85;41.35;101362.59;5115336;27;20077;-26
2022/04/26 11:12:29;;;;;;;0.20;0.20;;;;;;;20.85;41.53;101357.06;5116079;27;20709;-24
2022/04/26 11:14:56;;;;;;;0.10;0.10;;;;;;;20.78;42.22;101356.56;5128339;27;20070;-26
2022/04/26 11:17:22;;;;;;;0.20;0.20;;;;;;;20.89;41.80;101352.63;5129943;27;20055;-26
2022/04/26 11:20:14;;;;;;;0.10;0.10;;;;;;;20.91;41.62;101350.41;5109705;27;20043;-27
2022/04/26 11:22:46;;;;;;;0.10;0.10;;;;;;;20.90;41.41;101356.25;5104313;27;20413;-27
2022/04/26 11:28:00;;;;;;;0.22;0.22;;;;;;;20.92;41.45;101356.78;5114569;27;20600;-27
2022/04/26 11:30:31;;;;;;;0.10;0.10;;;;;;;20.92;41.31;101360.38;5126194;27;22315;-27
2022/04/26 11:32:59;;;;;;;0.20;0.20;;;;;;;20.93;41.43;101359.25;5128355;27;20130;-28
2022/04/26 11:35:25;;;;;;;0.10;0.10;;;;;;;20.93;41.34;101355.66;5123375;27;20147;-27
2022/04/26 11:37:53;;;;;;;0.20;0.20;;;;;;;20.94;41.27;101365.63;5110653;27;20047;-26
2022/04/26 11:40:28;;;;;;;0.10;0.10;;;;;;;20.94;41.05;101360.94;5075116;27;20439;-27
2022/04/26 11:42:58;;;;;;;0.20;0.20;;;;;;;20.94;41.03;101352.63;5095990;27;20142;-27
2022/04/26 11:45:28;;;;;;;0.13;0.13;;;;;;;20.95;41.27;101370.06;5120176;27;20219;-26
2022/04/26 11:47:55;;;;;;;0.10;0.10;;;;;;;20.96;41.19;101366.19;5110122;27;20050;-26
2022/04/26 11:50:26;;;;;;;0.10;0.10;;;;;;;20.97;40.93;101371.41;5112135;27;20043;-26
2022/04/26 11:52:55;;;;;;;0.20;0.20;;;;;;;20.97;40.95;101368.66;5107724;28;20460;-26
2022/04/26 11:55:23;;;;;;;0.20;0.20;;;;;;;20.97;41.09;101362.28;5114919;27;20134;-28
2022/04/26 11:57:49;;;;;;;0.10;0.10;;;;;;;20.99;40.97;101369.22;5091000;27;20142;-27
2022/04/26 12:00:16;;;;;;;0.20;0.20;;;;;;;20.99;41.06;101366.44;5109314;27;20174;-27
2022/04/26 12:02:42;;;;;;;0.20;0.20;;;;;;;20.99;40.90;101358.13;5112843;27;20139;-26
2022/04/26 12:05:09;;;;;;;0.20;0.20;;;;;;;20.99;41.04;101366.44;5091792;27;20355;-26
2022/04/26 12:07:38;;;;;;;0.10;0.10;;;;;;;21.00;40.90;101367.28;5109662;27;20047;-26
2022/04/26 12:10:24;;;;;;;0.15;0.15;;;;;;;21.00;40.80;101373.63;5080651;28;20050;-26
2022/04/26 12:12:59;;;;;;;0.10;0.10;;;;;;;21.00;40.79;101364.50;5085723;28;20139;-27
2022/04/26 12:15:26;;;;;;;0.20;0.20;;;;;;;21.01;40.79;101371.69;5078933;28;20096;-26
2022/04/26 12:18:13;;;;;;;0.10;0.10;;;;;;;21.01;40.81;101361.44;5076126;28;20131;-26
2022/04/26 12:20:59;;;;;;;0.10;0.10;;;;;;;21.02;40.72;101367.81;5080448;28;20553;-26
2022/04/26 12:23:26;;;;;;;0.10;0.10;;;;;;;21.02;40.88;101367.81;5078821;28;20196;-27
2022/04/26 12:25:56;;;;;;;0.10;0.10;;;;;;;21.02;40.73;101356.72;5097940;28;20130;-27
2022/04/26 12:28:23;;;;;;;0.10;0.10;;;;;;;21.03;40.72;101350.09;5077267;28;20260;-26
2022/04/26 12:30:48;;;;;;;0.10;0.10;;;;;;;21.02;40.70;101352.00;5079506;28;20480;-27
2022/04/26 12:33:31;;;;;;;0.10;0.10;;;;;;;21.01;40.79;101355.91;5095761;28;20100;-26
2022/04/26 12:35:59;;;;;;;0.20;0.20;;;;;;;21.01;40.76;101350.38;5096717;28;20193;-26
2022/04/26 12:38:25;;;;;;;;;;;;;;;21.01;40.78;101360.63;5083764;28;20362;-27
2022/04/26 12:41:06;;;;;;;0.20;0.20;;;;;;;20.99;40.90;101355.38;5093893;28;19931;-26
2022/04/26 12:43:33;;;;;;;0.10;0.10;;;;;;;21.00;40.80;101353.44;5100464;28;21350;-26
2022/04/26 12:46:02;;;;;;;0.10;0.10;;;;;;;21.00;40.56;101353.44;5099907;28;20551;-26
2022/04/26 12:51:24;;;;;;;0.13;0.13;;;;;;;20.98;40.51;101353.72;5102096;28;20162;-27
2022/04/26 12:54:07;;;;;;;0.10;0.10;;;;;;;20.97;40.75;101352.03;5089309;28;20126;-26
2022/04/26 12:56:32;;;;;;;0.10;0.10;;;;;;;20.98;40.78;101350.09;5097536;28;20131;-26
2022/04/26 12:58:58;;;;;;;0.20;0.20;;;;;;;20.97;40.45;101357.56;5098685;28;20047;-26
2022/04/26 13:01:24;;;;;;;0.10;0.10;;;;;;;20.97;40.99;101353.97;5111055;28;20130;-26
2022/04/26 13:03:58;;;;;;;0.20;0.20;;;;;;;20.96;40.58;101353.16;5091508;28;20047;-26
2022/04/26 13:06:25;;;;;;;0.10;0.10;;;;;;;20.96;40.81;101358.69;5095212;28;20044;-27
2022/04/26 13:09:10;;;;;;;0.10;0.10;;;;;;;20.53;39.70;101352.72;5066220;28;20048;-27
2022/04/26 13:11:36;;;;;;;0.10;0.10;;;;;;;20.80;40.36;101357.91;5095064;28;20066;-26
2022/04/26 13:14:02;;;;;;;0.10;0.10;;;;;;;20.91;40.27;101361.50;5101846;28;20045;-27
2022/04/26 13:16:46;;;;;;;0.10;0.10;;;;;;;20.92;40.31;101365.06;5098429;28;20048;-26
2022/04/26 13:19:12;;;;;;;0.10;0.10;;;;;;;20.93;40.52;101373.09;5097837;28;20056;-26
2022/04/26 13:21:38;;;;;;;0.20;0.20;;;;;;;20.94;40.33;101380.31;5095337;28;20068;-26
2022/04/26 13:24:04;;;;;;;0.10;0.10;;;;;;;20.96;40.36;101385.56;5098581;28;20099;-26
2022/04/26 13:26:31;;;;;;;0.35;0.35;;;;;;;20.96;40.30;101393.88;5102439;28;20502;-28
2022/04/26 13:28:56;;;;;;;0.20;0.20;;;;;;;20.96;40.17;101382.78;5094366;28;20371;-27
2022/04/26 13:31:23;;;;;;;0.30;0.30;;;;;;;20.97;40.37;101382.50;5095632;28;20051;-28
2022/04/26 13:33:49;;;;;;;0.20;0.20;;;;;;;20.97;40.31;101381.66;5093250;28;20044;-27
2022/04/26 13:36:15;;;;;;;0.20;0.20;;;;;;;20.98;40.34;101372.25;5101064;28;20410;-27
2022/04/26 13:38:40;;;;;;;0.20;0.20;;;;;;;20.98;40.33;101377.78;5086615;28;20040;-26
2022/04/26 13:41:06;;;;;;;0.20;0.20;;;;;;;20.98;40.33;101372.25;5096794;28;20051;-27
2022/04/26 13:43:32;;;;;;;0.20;0.20;;;;;;;20.99;40.47;101371.16;5097552;28;20047;-27
2022/04/26 13:46:14;;;;;;;0.10;0.10;;;;;;;21.00;40.38;101372.81;5097874;28;20067;-26
2022/04/26 13:48:40;;;;;;;0.20;0.20;;;;;;;21.00;40.38;101372.81;5093195;28;20658;-27
2022/04/26 13:51:06;;;;;;;0.20;0.20;;;;;;;21.00;40.23;101370.03;5096525;28;20052;-26
2022/04/26 13:53:31;;;;;;;0.20;0.20;;;;;;;21.01;40.28;101366.16;5100222;28;20048;-27
2022/04/26 13:55:59;;;;;;;0.13;0.13;;;;;;;21.02;40.46;101367.81;5092276;28;20496;-27
2022/04/26 13:58:25;;;;;;;0.10;0.10;;;;;;;21.02;40.36;101373.34;5097100;28;20142;-27
2022/04/26 14:00:50;;;;;;;0.20;0.20;;;;;;;21.02;40.49;101376.94;5106418;28;20065;-26
2022/04/26 14:03:16;;;;;;;0.10;0.10;;;;;;;21.03;40.38;101375.03;5106645;28;20439;-28
2022/04/26 14:05:43;;;;;;;0.10;0.10;;;;;;;21.03;40.56;101383.34;5096628;28;20056;-27
2022/04/26 14:08:09;;;;;;;0.20;0.20;;;;;;;21.03;40.49;101373.06;5106285;28;20113;-26
2022/04/26 14:10:34;;;;;;;0.13;0.13;;;;;;;21.04;40.33;101371.13;5100388;28;20056;-27
2022/04/26 14:13:00;;;;;;;0.17;0.17;;;;;;;21.04;40.13;101380.25;5099814;28;20471;-27
2022/04/26 14:23:42;;;;;;;0.20;0.20;;;;;;;21.03;40.47;101375.84;5081433;28;20593;-27
2022/04/26 14:26:08;;;;;;;0.10;0.10;;;;;;;21.04;40.57;101382.22;5091878;28;20123;-27
2022/04/26 14:28:34;;;;;;;0.10;0.10;;;;;;;21.03;40.49;101378.63;5095515;28;20537;-27
2022/04/26 14:30:59;;;;;;;0.20;0.20;;;;;;;21.02;40.38;101388.00;5098464;28;20048;-27
2022/04/26 14:33:25;;;;;;;0.20;0.20;;;;;;;21.03;40.42;101386.09;5110434;28;20401;-27
2022/04/26 14:35:51;;;;;;;0.17;0.17;;;;;;;21.02;40.31;101382.47;5096979;28;20100;-26
2022/04/26 14:38:17;;;;;;;0.10;0.10;;;;;;;21.02;40.51;101390.78;5089888;28;20048;-27
2022/04/26 14:40:43;;;;;;;0.10;0.10;;;;;;;21.01;40.59;101383.59;5094770;28;20047;-26
2022/04/26 14:43:09;;;;;;;0.20;0.20;;;;;;;21.02;40.37;101378.88;5096197;28;20526;-26
2022/04/26 14:45:44;;;;;;;0.13;0.13;;;;;;;21.02;40.56;101381.66;5097229;28;20138;-26
2022/04/26 14:48:11;;;;;;;0.10;0.10;;;;;;;21.00;40.38;101381.94;5079746;28;20498;-27
2022/04/26 14:50:38;;;;;;;0.15;0.15;;;;;;;21.01;40.23;101380.00;5076128;28;20554;-26
2022/04/26 14:53:03;;;;;;;0.20;0.20;;;;;;;21.00;40.54;101376.41;5081897;28;20090;-26
2022/04/26 14:55:49;;;;;;;0.20;0.20;;;;;;;20.99;40.51;101369.22;5084199;28;20108;-27
2022/04/26 14:58:15;;;;;;;0.10;0.10;;;;;;;20.99;40.59;101382.22;5093665;28;20048;-26
2022/04/26 15:00:41;;;;;;;0.20;0.20;;;;;;;20.98;40.50;101369.47;5102078;28;20043;-27
2022/04/26 15:03:07;;;;;;;0.20;0.20;;;;;;;20.99;40.59;101374.75;5098422;28;20152;-28
2022/04/26 15:05:33;;;;;;;0.10;0.10;;;;;;;20.98;40.53;101383.31;5083272;28;20039;-27
2022/04/26 15:10:44;;;;;;;0.20;0.20;;;;;;;20.98;40.39;101380.56;5084655;28;20051;-27
2022/04/26 15:18:41;;;;;;;0.10;0.10;;;;;;;20.95;40.47;101384.72;5068155;28;20537;-27
2022/04/26 15:21:08;;;;;;;0.10;0.10;;;;;;;20.95;40.55;101390.28;5100918;28;20048;-26
2022/04/26 15:23:35;;;;;;;0.10;0.10;;;;;;;20.95;40.46;101394.97;5092193;28;20177;-28
2022/04/26 15:26:06;;;;;;;0.10;0.10;;;;;;;20.95;40.30;101397.75;5083843;28;20127;-26
2022/04/26 15:28:33;;;;;;;0.20;0.20;;;;;;;20.95;40.37;101403.28;5096289;28;20135;-27
2022/04/26 15:30:59;;;;;;;0.10;0.10;;;;;;;20.94;40.45;101394.16;5094096;28;20127;-27
2022/04/26 15:33:25;;;;;;;0.17;0.17;;;;;;;20.94;40.27;101402.47;5077844;28;20082;-27
2022/04/26 15:35:51;;;;;;;0.10;0.10;;;;;;;20.93;40.38;101395.25;5108336;28;20075;-26
2022/04/26 15:38:17;;;;;;;0.10;0.10;;;;;;;20.92;40.55;101404.66;5094529;28;20049;-27
2022/04/26 15:40:46;;;;;;;0.10;0.10;;;;;;;20.92;40.39;101404.66;5064164;28;20086;-26
2022/04/26 15:43:12;;;;;;;0.10;0.10;;;;;;;20.92;40.52;101401.91;5063067;28;20143;-27
2022/04/26 15:45:38;;;;;;;0.20;0.20;;;;;;;20.92;40.32;101407.44;5094936;28;20056;-28
2022/04/26 15:48:04;;;;;;;0.10;0.10;;;;;;;20.92;40.27;101409.38;5089770;28;20055;-28
2022/04/26 15:50:30;;;;;;;0.20;0.20;;;;;;;20.92;40.66;101409.38;5066225;28;20138;-27
2022/04/26 15:52:56;;;;;;;0.10;0.10;;;;;;;20.91;40.56;101403.00;5106467;28;20623;-27
2022/04/26 15:55:22;;;;;;;0.10;0.10;;;;;;;20.91;40.45;101421.56;5081042;28;20397;-27
2022/04/26 15:57:51;;;;;;;0.17;0.17;;;;;;;20.90;40.66;101414.38;5095736;28;20083;-27